Destinations Birmingham International Airport

Birmingham International Airport (EGBB / BHX)

Flights to Birmingham International Airport

Flight number From ETE Dispatch
SPY-230 EHGG Groningen Airport Eelde 01:35
SPY-2520 EGPH Edinburgh Airport 01:15

Flights from Birmingham International Airport

Flight number To ETE Dispatch
SPY-231 EHGG Groningen Airport Eelde 01:30
SPY-2521 EGPH Edinburgh Airport 01:15
About

Birmingham International Airport facts

Birmingham International Airport is located in Birmingham at an elevation of 99.7 meters or 327 feet.

Currently, Speedy Airlines serves 4 flights to and from Birmingham International Airport.

Detailed airport info

Route map

Weather

Current weather

METAR

METAR

Metar data retrieved Sunday, 21 July 2024 at 19:55 UTC

EGBB 211920Z 27004KT 230V300 CAVOK 18/10 Q1013
Wind Temperature
4 kt 18c